sensor_id;sensor_type;location;lat;lon;timestamp;P1;durP1;ratioP1;P2;durP2;ratioP2
83190;SDS011;73087;49.924;22.080;2024-03-02T00:00:19;26.70;;;15.07;;
83190;SDS011;73087;49.924;22.080;2024-03-02T00:01:20;29.05;;;15.65;;
83190;SDS011;73087;49.924;22.080;2024-03-02T00:02:21;28.30;;;15.10;;
83190;SDS011;73087;49.924;22.080;2024-03-02T00:03:22;26.38;;;14.90;;
83190;SDS011;73087;49.924;22.080;2024-03-02T00:04:23;26.17;;;15.23;;
83190;SDS011;73087;49.924;22.080;2024-03-02T00:05:24;26.75;;;14.82;;
83190;SDS011;73087;49.924;22.080;2024-03-02T00:06:24;25.92;;;15.32;;
83190;SDS011;73087;49.924;22.080;2024-03-02T00:07:25;30.45;;;15.40;;
83190;SDS011;73087;49.924;22.080;2024-03-02T00:08:25;28.70;;;15.95;;
83190;SDS011;73087;49.924;22.080;2024-03-02T00:09:26;29.55;;;16.27;;
83190;SDS011;73087;49.924;22.080;2024-03-02T00:10:26;27.23;;;15.07;;
83190;SDS011;73087;49.924;22.080;2024-03-02T00:11:34;28.95;;;15.65;;
83190;SDS011;73087;49.924;22.080;2024-03-02T00:12:35;27.77;;;15.88;;
83190;SDS011;73087;49.924;22.080;2024-03-02T00:13:35;27.52;;;15.20;;
83190;SDS011;73087;49.924;22.080;2024-03-02T00:14:36;26.90;;;16.10;;
83190;SDS011;73087;49.924;22.080;2024-03-02T00:15:40;26.58;;;15.32;;
83190;SDS011;73087;49.924;22.080;2024-03-02T00:16:42;27.52;;;15.40;;
83190;SDS011;73087;49.924;22.080;2024-03-02T00:17:42;25.05;;;15.23;;
83190;SDS011;73087;49.924;22.080;2024-03-02T00:18:44;26.80;;;14.15;;
83190;SDS011;73087;49.924;22.080;2024-03-02T00:19:45;28.40;;;14.05;;
83190;SDS011;73087;49.924;22.080;2024-03-02T00:20:45;25.60;;;14.88;;
83190;SDS011;73087;49.924;22.080;2024-03-02T00:21:46;26.80;;;14.38;;
83190;SDS011;73087;49.924;22.080;2024-03-02T00:22:46;26.98;;;14.88;;
83190;SDS011;73087;49.924;22.080;2024-03-02T00:23:47;27.42;;;15.70;;
83190;SDS011;73087;49.924;22.080;2024-03-02T00:24:48;26.90;;;15.52;;
83190;SDS011;73087;49.924;22.080;2024-03-02T00:25:49;25.92;;;14.73;;
83190;SDS011;73087;49.924;22.080;2024-03-02T00:26:50;28.45;;;15.45;;
83190;SDS011;73087;49.924;22.080;2024-03-02T00:27:51;29.10;;;15.75;;
83190;SDS011;73087;49.924;22.080;2024-03-02T00:28:51;27.73;;;15.25;;
83190;SDS011;73087;49.924;22.080;2024-03-02T00:29:55;29.48;;;15.18;;
83190;SDS011;73087;49.924;22.080;2024-03-02T00:30:59;25.27;;;15.35;;
83190;SDS011;73087;49.924;22.080;2024-03-02T00:32:01;28.63;;;15.90;;
83190;SDS011;73087;49.924;22.080;2024-03-02T00:33:02;29.70;;;16.70;;
83190;SDS011;73087;49.924;22.080;2024-03-02T00:34:07;28.17;;;15.70;;
83190;SDS011;73087;49.924;22.080;2024-03-02T00:35:08;30.45;;;17.42;;
83190;SDS011;73087;49.924;22.080;2024-03-02T00:36:09;30.38;;;16.05;;
83190;SDS011;73087;49.924;22.080;2024-03-02T00:37:10;25.42;;;15.90;;
83190;SDS011;73087;49.924;22.080;2024-03-02T00:38:11;29.95;;;15.93;;
83190;SDS011;73087;49.924;22.080;2024-03-02T00:39:12;29.00;;;15.25;;
83190;SDS011;73087;49.924;22.080;2024-03-02T00:40:17;27.20;;;15.27;;
83190;SDS011;73087;49.924;22.080;2024-03-02T00:41:19;27.38;;;15.43;;
83190;SDS011;73087;49.924;22.080;2024-03-02T00:42:21;28.60;;;15.60;;
83190;SDS011;73087;49.924;22.080;2024-03-02T00:43:38;27.02;;;15.65;;
83190;SDS011;73087;49.924;22.080;2024-03-02T00:44:42;27.63;;;15.45;;
83190;SDS011;73087;49.924;22.080;2024-03-02T00:45:42;28.85;;;16.25;;
83190;SDS011;73087;49.924;22.080;2024-03-02T00:46:43;30.50;;;15.73;;
83190;SDS011;73087;49.924;22.080;2024-03-02T00:47:44;27.35;;;15.10;;
83190;SDS011;73087;49.924;22.080;2024-03-02T00:48:50;26.50;;;14.77;;
83190;SDS011;73087;49.924;22.080;2024-03-02T00:49:54;26.33;;;13.90;;
83190;SDS011;73087;49.924;22.080;2024-03-02T00:50:55;26.33;;;14.85;;
83190;SDS011;73087;49.924;22.080;2024-03-02T00:51:55;26.80;;;15.45;;
83190;SDS011;73087;49.924;22.080;2024-03-02T00:52:56;26.17;;;15.27;;
83190;SDS011;73087;49.924;22.080;2024-03-02T00:53:58;31.60;;;15.95;;
83190;SDS011;73087;49.924;22.080;2024-03-02T00:54:59;28.58;;;15.20;;
83190;SDS011;73087;49.924;22.080;2024-03-02T00:55:59;28.77;;;15.32;;
83190;SDS011;73087;49.924;22.080;2024-03-02T00:57:01;26.77;;;15.15;;
83190;SDS011;73087;49.924;22.080;2024-03-02T00:58:02;26.45;;;15.48;;
83190;SDS011;73087;49.924;22.080;2024-03-02T00:59:03;28.83;;;14.77;;
83190;SDS011;73087;49.924;22.080;2024-03-02T01:00:04;29.05;;;15.10;;
83190;SDS011;73087;49.924;22.080;2024-03-02T01:01:05;28.00;;;14.88;;
83190;SDS011;73087;49.924;22.080;2024-03-02T01:02:06;26.77;;;15.05;;
83190;SDS011;73087;49.924;22.080;2024-03-02T01:03:06;27.92;;;15.82;;
83190;SDS011;73087;49.924;22.080;2024-03-02T01:04:07;26.85;;;15.20;;
83190;SDS011;73087;49.924;22.080;2024-03-02T01:05:09;25.98;;;14.48;;
83190;SDS011;73087;49.924;22.080;2024-03-02T01:06:09;27.15;;;14.75;;
83190;SDS011;73087;49.924;22.080;2024-03-02T01:07:10;27.38;;;15.60;;
83190;SDS011;73087;49.924;22.080;2024-03-02T01:08:10;26.98;;;15.82;;
83190;SDS011;73087;49.924;22.080;2024-03-02T01:09:11;28.08;;;16.20;;
83190;SDS011;73087;49.924;22.080;2024-03-02T01:10:11;32.60;;;16.85;;
83190;SDS011;73087;49.924;22.080;2024-03-02T01:11:12;29.10;;;15.18;;
83190;SDS011;73087;49.924;22.080;2024-03-02T01:12:13;28.75;;;16.38;;
83190;SDS011;73087;49.924;22.080;2024-03-02T01:13:13;28.33;;;15.57;;
83190;SDS011;73087;49.924;22.080;2024-03-02T01:14:14;31.60;;;16.38;;
83190;SDS011;73087;49.924;22.080;2024-03-02T01:15:14;29.10;;;16.00;;
83190;SDS011;73087;49.924;22.080;2024-03-02T01:16:15;28.23;;;16.30;;
83190;SDS011;73087;49.924;22.080;2024-03-02T01:17:15;27.67;;;15.88;;
83190;SDS011;73087;49.924;22.080;2024-03-02T01:18:16;31.67;;;16.67;;
83190;SDS011;73087;49.924;22.080;2024-03-02T01:19:16;28.95;;;15.52;;
83190;SDS011;73087;49.924;22.080;2024-03-02T01:20:18;26.25;;;15.80;;
83190;SDS011;73087;49.924;22.080;2024-03-02T01:21:19;30.88;;;16.30;;
83190;SDS011;73087;49.924;22.080;2024-03-02T01:22:20;27.95;;;16.67;;
83190;SDS011;73087;49.924;22.080;2024-03-02T01:23:20;30.80;;;16.55;;
83190;SDS011;73087;49.924;22.080;2024-03-02T01:24:21;31.50;;;17.08;;
83190;SDS011;73087;49.924;22.080;2024-03-02T01:25:21;27.50;;;15.95;;
83190;SDS011;73087;49.924;22.080;2024-03-02T01:26:22;29.63;;;16.90;;
83190;SDS011;73087;49.924;22.080;2024-03-02T01:27:22;31.40;;;17.33;;
83190;SDS011;73087;49.924;22.080;2024-03-02T01:28:22;29.50;;;16.25;;
83190;SDS011;73087;49.924;22.080;2024-03-02T01:29:23;28.85;;;15.82;;
83190;SDS011;73087;49.924;22.080;2024-03-02T01:30:23;26.40;;;15.32;;
83190;SDS011;73087;49.924;22.080;2024-03-02T01:31:24;27.17;;;15.50;;
83190;SDS011;73087;49.924;22.080;2024-03-02T01:32:24;28.15;;;15.85;;
83190;SDS011;73087;49.924;22.080;2024-03-02T01:33:25;26.92;;;15.75;;
83190;SDS011;73087;49.924;22.080;2024-03-02T01:34:25;29.88;;;15.73;;
83190;SDS011;73087;49.924;22.080;2024-03-02T01:35:27;25.42;;;14.25;;
83190;SDS011;73087;49.924;22.080;2024-03-02T01:36:28;30.83;;;15.95;;
83190;SDS011;73087;49.924;22.080;2024-03-02T01:37:28;29.15;;;15.52;;
83190;SDS011;73087;49.924;22.080;2024-03-02T01:38:28;27.25;;;15.05;;
83190;SDS011;73087;49.924;22.080;2024-03-02T01:39:29;25.02;;;15.75;;
83190;SDS011;73087;49.924;22.080;2024-03-02T01:40:29;26.75;;;15.52;;
83190;SDS011;73087;49.924;22.080;2024-03-02T01:41:30;28.88;;;15.90;;
83190;SDS011;73087;49.924;22.080;2024-03-02T01:42:30;28.95;;;15.27;;
83190;SDS011;73087;49.924;22.080;2024-03-02T01:43:31;28.02;;;15.75;;
83190;SDS011;73087;49.924;22.080;2024-03-02T01:44:31;27.20;;;15.35;;
83190;SDS011;73087;49.924;22.080;2024-03-02T01:45:32;24.60;;;13.95;;
83190;SDS011;73087;49.924;22.080;2024-03-02T01:46:32;26.75;;;14.20;;
83190;SDS011;73087;49.924;22.080;2024-03-02T01:47:33;27.83;;;15.13;;
83190;SDS011;73087;49.924;22.080;2024-03-02T01:48:33;27.15;;;15.43;;
83190;SDS011;73087;49.924;22.080;2024-03-02T01:49:34;24.73;;;14.82;;
83190;SDS011;73087;49.924;22.080;2024-03-02T01:50:36;28.65;;;15.75;;
83190;SDS011;73087;49.924;22.080;2024-03-02T01:51:37;25.55;;;14.70;;
83190;SDS011;73087;49.924;22.080;2024-03-02T01:52:37;28.75;;;14.95;;
83190;SDS011;73087;49.924;22.080;2024-03-02T01:53:38;26.88;;;14.15;;
83190;SDS011;73087;49.924;22.080;2024-03-02T01:54:38;25.27;;;14.98;;
83190;SDS011;73087;49.924;22.080;2024-03-02T01:55:39;27.52;;;15.77;;
83190;SDS011;73087;49.924;22.080;2024-03-02T01:56:39;23.17;;;14.73;;
83190;SDS011;73087;49.924;22.080;2024-03-02T01:57:40;27.30;;;15.30;;
83190;SDS011;73087;49.924;22.080;2024-03-02T01:58:41;28.23;;;14.80;;
83190;SDS011;73087;49.924;22.080;2024-03-02T01:59:41;29.63;;;15.07;;
83190;SDS011;73087;49.924;22.080;2024-03-02T02:00:42;28.45;;;14.90;;
83190;SDS011;73087;49.924;22.080;2024-03-02T02:01:42;28.38;;;15.82;;
83190;SDS011;73087;49.924;22.080;2024-03-02T02:02:43;29.45;;;15.30;;
83190;SDS011;73087;49.924;22.080;2024-03-02T02:03:44;26.02;;;14.60;;
83190;SDS011;73087;49.924;22.080;2024-03-02T02:04:44;32.00;;;15.90;;
83190;SDS011;73087;49.924;22.080;2024-03-02T02:05:46;29.38;;;15.95;;
83190;SDS011;73087;49.924;22.080;2024-03-02T02:06:46;29.58;;;15.82;;
83190;SDS011;73087;49.924;22.080;2024-03-02T02:07:47;28.55;;;16.80;;
83190;SDS011;73087;49.924;22.080;2024-03-02T02:08:47;31.80;;;16.60;;
83190;SDS011;73087;49.924;22.080;2024-03-02T02:09:48;29.25;;;16.15;;
83190;SDS011;73087;49.924;22.080;2024-03-02T02:10:48;31.58;;;17.00;;
83190;SDS011;73087;49.924;22.080;2024-03-02T02:11:49;30.35;;;16.05;;
83190;SDS011;73087;49.924;22.080;2024-03-02T02:12:50;28.00;;;15.85;;
83190;SDS011;73087;49.924;22.080;2024-03-02T02:13:51;27.35;;;15.55;;
83190;SDS011;73087;49.924;22.080;2024-03-02T02:14:51;27.63;;;15.48;;
83190;SDS011;73087;49.924;22.080;2024-03-02T02:15:52;27.15;;;15.55;;
83190;SDS011;73087;49.924;22.080;2024-03-02T02:16:52;28.92;;;15.73;;
83190;SDS011;73087;49.924;22.080;2024-03-02T02:17:53;26.67;;;14.75;;
83190;SDS011;73087;49.924;22.080;2024-03-02T02:18:54;28.63;;;15.50;;
83190;SDS011;73087;49.924;22.080;2024-03-02T02:19:54;25.33;;;14.27;;
83190;SDS011;73087;49.924;22.080;2024-03-02T02:20:56;29.27;;;14.80;;
83190;SDS011;73087;49.924;22.080;2024-03-02T02:21:58;29.40;;;15.52;;
83190;SDS011;73087;49.924;22.080;2024-03-02T02:22:58;27.13;;;14.68;;
83190;SDS011;73087;49.924;22.080;2024-03-02T02:24:00;27.58;;;15.85;;
83190;SDS011;73087;49.924;22.080;2024-03-02T02:25:00;29.70;;;15.27;;
83190;SDS011;73087;49.924;22.080;2024-03-02T02:26:01;28.77;;;15.52;;
83190;SDS011;73087;49.924;22.080;2024-03-02T02:27:01;27.23;;;15.18;;
83190;SDS011;73087;49.924;22.080;2024-03-02T02:28:02;29.45;;;16.48;;
83190;SDS011;73087;49.924;22.080;2024-03-02T02:29:02;27.27;;;15.88;;
83190;SDS011;73087;49.924;22.080;2024-03-02T02:30:03;28.25;;;15.15;;
83190;SDS011;73087;49.924;22.080;2024-03-02T02:31:04;28.25;;;16.00;;
83190;SDS011;73087;49.924;22.080;2024-03-02T02:32:05;27.70;;;15.35;;
83190;SDS011;73087;49.924;22.080;2024-03-02T02:33:06;28.38;;;16.20;;
83190;SDS011;73087;49.924;22.080;2024-03-02T02:34:06;28.02;;;15.90;;
83190;SDS011;73087;49.924;22.080;2024-03-02T02:35:07;28.27;;;15.57;;
83190;SDS011;73087;49.924;22.080;2024-03-02T02:36:08;28.25;;;15.70;;
83190;SDS011;73087;49.924;22.080;2024-03-02T02:37:09;28.63;;;15.52;;
83190;SDS011;73087;49.924;22.080;2024-03-02T02:38:10;29.48;;;16.40;;
83190;SDS011;73087;49.924;22.080;2024-03-02T02:39:11;31.08;;;16.15;;
83190;SDS011;73087;49.924;22.080;2024-03-02T02:40:16;27.83;;;15.15;;
83190;SDS011;73087;49.924;22.080;2024-03-02T02:41:16;29.75;;;16.33;;
83190;SDS011;73087;49.924;22.080;2024-03-02T02:42:17;27.58;;;16.05;;
83190;SDS011;73087;49.924;22.080;2024-03-02T02:43:17;32.40;;;16.80;;
83190;SDS011;73087;49.924;22.080;2024-03-02T02:44:18;28.70;;;15.38;;
83190;SDS011;73087;49.924;22.080;2024-03-02T02:45:18;27.55;;;15.68;;
83190;SDS011;73087;49.924;22.080;2024-03-02T02:46:19;29.08;;;14.93;;
83190;SDS011;73087;49.924;22.080;2024-03-02T02:47:19;27.95;;;16.02;;
83190;SDS011;73087;49.924;22.080;2024-03-02T02:48:19;26.92;;;14.90;;
83190;SDS011;73087;49.924;22.080;2024-03-02T02:49:20;28.00;;;15.55;;
83190;SDS011;73087;49.924;22.080;2024-03-02T02:50:20;30.95;;;16.35;;
83190;SDS011;73087;49.924;22.080;2024-03-02T02:51:21;28.40;;;15.30;;
83190;SDS011;73087;49.924;22.080;2024-03-02T02:52:23;29.45;;;15.73;;
83190;SDS011;73087;49.924;22.080;2024-03-02T02:53:23;29.60;;;16.75;;
83190;SDS011;73087;49.924;22.080;2024-03-02T02:54:23;30.05;;;16.10;;
83190;SDS011;73087;49.924;22.080;2024-03-02T02:55:24;29.83;;;16.20;;
83190;SDS011;73087;49.924;22.080;2024-03-02T02:56:24;30.92;;;16.25;;
83190;SDS011;73087;49.924;22.080;2024-03-02T02:57:25;28.00;;;15.38;;
83190;SDS011;73087;49.924;22.080;2024-03-02T02:58:25;25.48;;;15.25;;
83190;SDS011;73087;49.924;22.080;2024-03-02T02:59:26;28.38;;;16.13;;
83190;SDS011;73087;49.924;22.080;2024-03-02T03:00:26;28.13;;;15.38;;
83190;SDS011;73087;49.924;22.080;2024-03-02T03:01:27;29.25;;;15.55;;
83190;SDS011;73087;49.924;22.080;2024-03-02T03:02:27;31.25;;;16.60;;
83190;SDS011;73087;49.924;22.080;2024-03-02T03:03:28;29.48;;;15.57;;
83190;SDS011;73087;49.924;22.080;2024-03-02T03:04:28;30.75;;;16.08;;
83190;SDS011;73087;49.924;22.080;2024-03-02T03:05:29;25.33;;;14.10;;
83190;SDS011;73087;49.924;22.080;2024-03-02T03:06:29;25.10;;;14.32;;
83190;SDS011;73087;49.924;22.080;2024-03-02T03:07:31;26.48;;;13.98;;
83190;SDS011;73087;49.924;22.080;2024-03-02T03:08:31;24.02;;;14.02;;
83190;SDS011;73087;49.924;22.080;2024-03-02T03:09:32;26.90;;;14.88;;
83190;SDS011;73087;49.924;22.080;2024-03-02T03:10:32;31.05;;;17.02;;
83190;SDS011;73087;49.924;22.080;2024-03-02T03:11:33;30.30;;;17.05;;
83190;SDS011;73087;49.924;22.080;2024-03-02T03:12:33;27.40;;;14.43;;
83190;SDS011;73087;49.924;22.080;2024-03-02T03:13:34;27.65;;;15.68;;
83190;SDS011;73087;49.924;22.080;2024-03-02T03:14:35;27.08;;;15.00;;
83190;SDS011;73087;49.924;22.080;2024-03-02T03:15:36;27.90;;;15.02;;
83190;SDS011;73087;49.924;22.080;2024-03-02T03:16:37;27.13;;;15.27;;
83190;SDS011;73087;49.924;22.080;2024-03-02T03:17:37;25.70;;;15.05;;
83190;SDS011;73087;49.924;22.080;2024-03-02T03:18:38;25.13;;;14.45;;
83190;SDS011;73087;49.924;22.080;2024-03-02T03:19:38;25.27;;;14.52;;
83190;SDS011;73087;49.924;22.080;2024-03-02T03:20:39;26.75;;;15.05;;
83190;SDS011;73087;49.924;22.080;2024-03-02T03:21:39;32.53;;;17.08;;
83190;SDS011;73087;49.924;22.080;2024-03-02T03:22:42;33.13;;;17.20;;
83190;SDS011;73087;49.924;22.080;2024-03-02T03:23:42;32.90;;;17.13;;
83190;SDS011;73087;49.924;22.080;2024-03-02T03:24:43;28.30;;;16.10;;
83190;SDS011;73087;49.924;22.080;2024-03-02T03:25:43;27.75;;;15.90;;
83190;SDS011;73087;49.924;22.080;2024-03-02T03:26:44;31.73;;;16.80;;
83190;SDS011;73087;49.924;22.080;2024-03-02T03:27:44;29.25;;;15.38;;
83190;SDS011;73087;49.924;22.080;2024-03-02T03:28:44;32.78;;;17.45;;
83190;SDS011;73087;49.924;22.080;2024-03-02T03:29:45;30.00;;;16.13;;
83190;SDS011;73087;49.924;22.080;2024-03-02T03:30:45;31.85;;;17.20;;
83190;SDS011;73087;49.924;22.080;2024-03-02T03:31:46;28.30;;;15.57;;
83190;SDS011;73087;49.924;22.080;2024-03-02T03:32:46;28.23;;;15.32;;
83190;SDS011;73087;49.924;22.080;2024-03-02T03:33:47;27.55;;;15.40;;
83190;SDS011;73087;49.924;22.080;2024-03-02T03:34:47;30.88;;;15.38;;
83190;SDS011;73087;49.924;22.080;2024-03-02T03:35:48;30.02;;;15.25;;
83190;SDS011;73087;49.924;22.080;2024-03-02T03:36:48;27.85;;;15.43;;
83190;SDS011;73087;49.924;22.080;2024-03-02T03:37:50;30.30;;;16.20;;
83190;SDS011;73087;49.924;22.080;2024-03-02T03:38:50;30.48;;;15.75;;
83190;SDS011;73087;49.924;22.080;2024-03-02T03:39:51;27.02;;;13.93;;
83190;SDS011;73087;49.924;22.080;2024-03-02T03:40:51;32.97;;;16.80;;
83190;SDS011;73087;49.924;22.080;2024-03-02T03:41:52;30.50;;;15.90;;
83190;SDS011;73087;49.924;22.080;2024-03-02T03:42:52;27.73;;;15.95;;
83190;SDS011;73087;49.924;22.080;2024-03-02T03:43:53;29.15;;;15.18;;
83190;SDS011;73087;49.924;22.080;2024-03-02T03:44:53;32.83;;;17.48;;
83190;SDS011;73087;49.924;22.080;2024-03-02T03:45:54;28.58;;;15.65;;
83190;SDS011;73087;49.924;22.080;2024-03-02T03:46:54;29.65;;;15.70;;
83190;SDS011;73087;49.924;22.080;2024-03-02T03:47:55;27.77;;;15.35;;
83190;SDS011;73087;49.924;22.080;2024-03-02T03:48:55;29.38;;;15.93;;
83190;SDS011;73087;49.924;22.080;2024-03-02T03:49:56;30.80;;;15.57;;
83190;SDS011;73087;49.924;22.080;2024-03-02T03:50:56;30.08;;;16.17;;
83190;SDS011;73087;49.924;22.080;2024-03-02T03:51:57;30.17;;;15.73;;
83190;SDS011;73087;49.924;22.080;2024-03-02T03:52:58;27.50;;;14.73;;
83190;SDS011;73087;49.924;22.080;2024-03-02T03:53:59;27.30;;;14.82;;
83190;SDS011;73087;49.924;22.080;2024-03-02T03:54:59;24.98;;;13.88;;
83190;SDS011;73087;49.924;22.080;2024-03-02T03:56:00;25.23;;;14.05;;
83190;SDS011;73087;49.924;22.080;2024-03-02T03:57:00;26.23;;;14.75;;
83190;SDS011;73087;49.924;22.080;2024-03-02T03:58:01;28.98;;;15.65;;
83190;SDS011;73087;49.924;22.080;2024-03-02T03:59:01;30.77;;;16.83;;
83190;SDS011;73087;49.924;22.080;2024-03-02T04:00:02;32.13;;;16.73;;
83190;SDS011;73087;49.924;22.080;2024-03-02T04:01:03;28.05;;;15.95;;
83190;SDS011;73087;49.924;22.080;2024-03-02T04:02:03;33.63;;;17.13;;
83190;SDS011;73087;49.924;22.080;2024-03-02T04:03:04;30.98;;;16.67;;
83190;SDS011;73087;49.924;22.080;2024-03-02T04:04:04;29.70;;;16.02;;
83190;SDS011;73087;49.924;22.080;2024-03-02T04:05:05;32.88;;;17.17;;
83190;SDS011;73087;49.924;22.080;2024-03-02T04:06:06;31.58;;;17.13;;
83190;SDS011;73087;49.924;22.080;2024-03-02T04:07:06;31.45;;;16.58;;
83190;SDS011;73087;49.924;22.080;2024-03-02T04:08:08;30.52;;;16.08;;
83190;SDS011;73087;49.924;22.080;2024-03-02T04:09:09;32.67;;;16.70;;
83190;SDS011;73087;49.924;22.080;2024-03-02T04:10:09;31.08;;;16.52;;
83190;SDS011;73087;49.924;22.080;2024-03-02T04:11:10;29.40;;;15.85;;
83190;SDS011;73087;49.924;22.080;2024-03-02T04:12:11;28.73;;;16.10;;
83190;SDS011;73087;49.924;22.080;2024-03-02T04:13:11;29.13;;;16.50;;
83190;SDS011;73087;49.924;22.080;2024-03-02T04:14:12;29.63;;;17.35;;
83190;SDS011;73087;49.924;22.080;2024-03-02T04:15:12;31.70;;;17.67;;
83190;SDS011;73087;49.924;22.080;2024-03-02T04:16:13;32.60;;;17.92;;
83190;SDS011;73087;49.924;22.080;2024-03-02T04:17:13;30.50;;;16.85;;
83190;SDS011;73087;49.924;22.080;2024-03-02T04:18:13;31.27;;;17.13;;
83190;SDS011;73087;49.924;22.080;2024-03-02T04:19:14;32.22;;;16.35;;
83190;SDS011;73087;49.924;22.080;2024-03-02T04:20:14;29.70;;;16.75;;
83190;SDS011;73087;49.924;22.080;2024-03-02T04:21:15;32.90;;;17.45;;
83190;SDS011;73087;49.924;22.080;2024-03-02T04:22:15;31.92;;;17.35;;
83190;SDS011;73087;49.924;22.080;2024-03-02T04:23:17;33.42;;;17.30;;
83190;SDS011;73087;49.924;22.080;2024-03-02T04:24:18;34.10;;;16.92;;
83190;SDS011;73087;49.924;22.080;2024-03-02T04:25:18;34.53;;;17.40;;
83190;SDS011;73087;49.924;22.080;2024-03-02T04:26:18;33.65;;;16.95;;
83190;SDS011;73087;49.924;22.080;2024-03-02T04:27:19;33.80;;;17.02;;
83190;SDS011;73087;49.924;22.080;2024-03-02T04:28:19;32.50;;;17.15;;
83190;SDS011;73087;49.924;22.080;2024-03-02T04:29:20;31.35;;;16.20;;
83190;SDS011;73087;49.924;22.080;2024-03-02T04:30:20;28.70;;;16.83;;
83190;SDS011;73087;49.924;22.080;2024-03-02T04:31:21;30.98;;;16.70;;
83190;SDS011;73087;49.924;22.080;2024-03-02T04:32:22;30.77;;;14.43;;
83190;SDS011;73087;49.924;22.080;2024-03-02T04:33:22;30.23;;;16.00;;
83190;SDS011;73087;49.924;22.080;2024-03-02T04:34:22;28.70;;;15.77;;
83190;SDS011;73087;49.924;22.080;2024-03-02T04:35:23;33.05;;;16.50;;
83190;SDS011;73087;49.924;22.080;2024-03-02T04:36:24;33.00;;;16.48;;
83190;SDS011;73087;49.924;22.080;2024-03-02T04:37:24;31.33;;;15.85;;
83190;SDS011;73087;49.924;22.080;2024-03-02T04:38:26;36.92;;;18.65;;
83190;SDS011;73087;49.924;22.080;2024-03-02T04:39:27;34.95;;;18.42;;
83190;SDS011;73087;49.924;22.080;2024-03-02T04:40:27;35.35;;;17.25;;
83190;SDS011;73087;49.924;22.080;2024-03-02T04:41:27;34.33;;;17.05;;
83190;SDS011;73087;49.924;22.080;2024-03-02T04:42:28;35.28;;;18.25;;
83190;SDS011;73087;49.924;22.080;2024-03-02T04:43:28;32.55;;;16.70;;
83190;SDS011;73087;49.924;22.080;2024-03-02T04:44:29;33.60;;;17.30;;
83190;SDS011;73087;49.924;22.080;2024-03-02T04:45:29;36.13;;;17.35;;
83190;SDS011;73087;49.924;22.080;2024-03-02T04:46:31;34.78;;;18.38;;
83190;SDS011;73087;49.924;22.080;2024-03-02T04:47:31;36.70;;;18.17;;
83190;SDS011;73087;49.924;22.080;2024-03-02T04:48:32;34.47;;;17.85;;
83190;SDS011;73087;49.924;22.080;2024-03-02T04:49:32;32.38;;;17.80;;
83190;SDS011;73087;49.924;22.080;2024-03-02T04:50:33;35.38;;;16.58;;
83190;SDS011;73087;49.924;22.080;2024-03-02T04:51:33;29.85;;;16.58;;
83190;SDS011;73087;49.924;22.080;2024-03-02T04:52:34;31.27;;;17.63;;
83190;SDS011;73087;49.924;22.080;2024-03-02T04:53:35;32.53;;;18.05;;
83190;SDS011;73087;49.924;22.080;2024-03-02T04:54:36;36.95;;;17.50;;
83190;SDS011;73087;49.924;22.080;2024-03-02T04:55:36;33.05;;;17.30;;
83190;SDS011;73087;49.924;22.080;2024-03-02T04:56:37;32.03;;;16.25;;
83190;SDS011;73087;49.924;22.080;2024-03-02T04:57:37;33.08;;;16.85;;
83190;SDS011;73087;49.924;22.080;2024-03-02T04:58:38;33.58;;;18.58;;
83190;SDS011;73087;49.924;22.080;2024-03-02T04:59:38;33.50;;;18.17;;
83190;SDS011;73087;49.924;22.080;2024-03-02T05:00:38;31.67;;;16.27;;
83190;SDS011;73087;49.924;22.080;2024-03-02T05:01:39;35.90;;;19.08;;
83190;SDS011;73087;49.924;22.080;2024-03-02T05:02:39;37.58;;;17.48;;
83190;SDS011;73087;49.924;22.080;2024-03-02T05:03:40;36.10;;;19.15;;
83190;SDS011;73087;49.924;22.080;2024-03-02T05:04:40;36.70;;;17.85;;
83190;SDS011;73087;49.924;22.080;2024-03-02T05:05:41;37.00;;;18.52;;
83190;SDS011;73087;49.924;22.080;2024-03-02T05:06:41;36.05;;;18.25;;
83190;SDS011;73087;49.924;22.080;2024-03-02T05:07:42;39.15;;;18.95;;
83190;SDS011;73087;49.924;22.080;2024-03-02T05:08:43;36.53;;;18.67;;
83190;SDS011;73087;49.924;22.080;2024-03-02T05:09:44;38.03;;;18.70;;
83190;SDS011;73087;49.924;22.080;2024-03-02T05:10:44;40.03;;;19.40;;
83190;SDS011;73087;49.924;22.080;2024-03-02T05:11:45;38.10;;;17.85;;
83190;SDS011;73087;49.924;22.080;2024-03-02T05:12:45;36.47;;;18.90;;
83190;SDS011;73087;49.924;22.080;2024-03-02T05:13:46;35.95;;;18.88;;
83190;SDS011;73087;49.924;22.080;2024-03-02T05:14:46;39.15;;;18.77;;
83190;SDS011;73087;49.924;22.080;2024-03-02T05:15:46;35.28;;;18.45;;
83190;SDS011;73087;49.924;22.080;2024-03-02T05:16:47;37.35;;;19.30;;
83190;SDS011;73087;49.924;22.080;2024-03-02T05:17:47;34.90;;;17.88;;
83190;SDS011;73087;49.924;22.080;2024-03-02T05:18:48;39.78;;;20.23;;
83190;SDS011;73087;49.924;22.080;2024-03-02T05:19:48;37.58;;;19.02;;
83190;SDS011;73087;49.924;22.080;2024-03-02T05:20:49;35.25;;;18.77;;
83190;SDS011;73087;49.924;22.080;2024-03-02T05:21:49;36.13;;;19.17;;
83190;SDS011;73087;49.924;22.080;2024-03-02T05:22:50;40.35;;;18.75;;
83190;SDS011;73087;49.924;22.080;2024-03-02T05:23:51;36.53;;;18.58;;
83190;SDS011;73087;49.924;22.080;2024-03-02T05:24:52;36.35;;;18.42;;
83190;SDS011;73087;49.924;22.080;2024-03-02T05:25:52;34.38;;;18.13;;
83190;SDS011;73087;49.924;22.080;2024-03-02T05:26:53;36.80;;;19.33;;
83190;SDS011;73087;49.924;22.080;2024-03-02T05:27:54;37.17;;;18.25;;
83190;SDS011;73087;49.924;22.080;2024-03-02T05:28:54;37.45;;;18.15;;
83190;SDS011;73087;49.924;22.080;2024-03-02T05:29:55;32.90;;;16.95;;
83190;SDS011;73087;49.924;22.080;2024-03-02T05:30:55;33.17;;;17.02;;
83190;SDS011;73087;49.924;22.080;2024-03-02T05:31:55;35.08;;;16.70;;
83190;SDS011;73087;49.924;22.080;2024-03-02T05:32:56;36.15;;;18.10;;
83190;SDS011;73087;49.924;22.080;2024-03-02T05:33:56;33.33;;;17.48;;
83190;SDS011;73087;49.924;22.080;2024-03-02T05:34:57;34.40;;;17.52;;
83190;SDS011;73087;49.924;22.080;2024-03-02T05:35:57;39.90;;;20.63;;
83190;SDS011;73087;49.924;22.080;2024-03-02T05:36:58;35.72;;;17.42;;
83190;SDS011;73087;49.924;22.080;2024-03-02T05:37:58;39.65;;;20.33;;
83190;SDS011;73087;49.924;22.080;2024-03-02T05:39:00;41.22;;;20.92;;
83190;SDS011;73087;49.924;22.080;2024-03-02T05:40:00;37.45;;;19.45;;
83190;SDS011;73087;49.924;22.080;2024-03-02T05:41:01;34.45;;;18.35;;
83190;SDS011;73087;49.924;22.080;2024-03-02T05:42:02;37.15;;;19.60;;
83190;SDS011;73087;49.924;22.080;2024-03-02T05:43:02;34.15;;;17.45;;
83190;SDS011;73087;49.924;22.080;2024-03-02T05:44:03;36.15;;;18.30;;
83190;SDS011;73087;49.924;22.080;2024-03-02T05:45:04;38.75;;;19.75;;
83190;SDS011;73087;49.924;22.080;2024-03-02T05:46:05;37.55;;;17.95;;
83190;SDS011;73087;49.924;22.080;2024-03-02T05:47:06;37.17;;;18.10;;
83190;SDS011;73087;49.924;22.080;2024-03-02T05:48:07;36.42;;;18.23;;
83190;SDS011;73087;49.924;22.080;2024-03-02T05:49:07;34.83;;;18.10;;
83190;SDS011;73087;49.924;22.080;2024-03-02T05:50:08;41.22;;;20.23;;